createdAt,value
2018-06-13T00:00:29.385Z,13.70
2018-06-13T00:03:32.650Z,13.70
2018-06-13T00:06:35.870Z,13.70
2018-06-13T00:09:39.153Z,13.70
2018-06-13T00:12:42.385Z,13.70
2018-06-13T00:15:45.605Z,13.70
2018-06-13T00:21:51.855Z,13.70
2018-06-13T00:24:55.159Z,13.70
2018-06-13T00:27:58.560Z,13.60
2018-06-13T00:31:01.742Z,13.60
2018-06-13T00:34:05.022Z,13.60
2018-06-13T00:37:08.256Z,13.60
2018-06-13T00:43:14.426Z,13.60
2018-06-13T00:46:18.518Z,13.50
2018-06-13T00:49:21.709Z,13.60
2018-06-13T00:52:24.950Z,13.50
2018-06-13T00:55:28.218Z,13.50
2018-06-13T00:58:31.414Z,13.50
2018-06-13T01:01:34.660Z,13.50
2018-06-13T01:04:37.974Z,13.40
2018-06-13T01:07:41.252Z,13.40
2018-06-13T01:10:44.518Z,13.50
2018-06-13T01:16:50.611Z,13.40
2018-06-13T01:19:53.948Z,13.40
2018-06-13T01:22:57.204Z,13.30
2018-06-13T01:26:00.486Z,13.30
2018-06-13T01:32:06.818Z,13.20
2018-06-13T01:35:09.998Z,13.20
2018-06-13T01:38:13.375Z,13.20
2018-06-13T01:41:20.605Z,13.10
2018-06-13T01:44:23.845Z,13.10
2018-06-13T01:47:27.116Z,13.10
2018-06-13T01:50:30.321Z,13.20
2018-06-13T01:53:33.587Z,13.20
2018-06-13T01:56:36.785Z,13.10
2018-06-13T01:59:40.114Z,13.20
2018-06-13T02:02:43.310Z,13.10
2018-06-13T02:05:46.533Z,13.10
2018-06-13T02:08:49.753Z,13.10
2018-06-13T02:11:53.022Z,13.10
2018-06-13T02:14:56.241Z,13.10
2018-06-13T02:17:59.390Z,13.10
2018-06-13T02:24:05.806Z,13.10
2018-06-13T02:27:09.030Z,13.10
2018-06-13T02:30:12.325Z,13.10
2018-06-13T02:33:15.556Z,13.10
2018-06-13T02:39:21.814Z,13.00
2018-06-13T02:42:25.014Z,12.90
2018-06-13T02:45:28.274Z,13.00
2018-06-13T02:48:31.562Z,13.00
2018-06-13T02:51:34.818Z,13.00
2018-06-13T02:57:41.169Z,12.90
2018-06-13T03:00:44.482Z,12.90
2018-06-13T03:03:47.687Z,12.90
2018-06-13T03:06:50.950Z,12.90
2018-06-13T03:09:54.138Z,12.90
2018-06-13T03:12:57.414Z,13.00
2018-06-13T03:16:00.706Z,12.90
2018-06-13T03:19:03.881Z,12.90
2018-06-13T03:25:10.246Z,12.90
2018-06-13T03:28:13.385Z,12.90
2018-06-13T03:31:16.605Z,12.90
2018-06-13T03:34:19.919Z,12.90
2018-06-13T03:37:23.165Z,12.90
2018-06-13T03:40:26.483Z,12.80
2018-06-13T03:43:29.800Z,12.90
2018-06-13T03:46:33.048Z,12.90
2018-06-13T03:49:36.370Z,12.90
2018-06-13T03:52:39.571Z,12.90
2018-06-13T03:55:42.763Z,12.80
2018-06-13T03:58:46.054Z,12.80
2018-06-13T04:01:49.289Z,12.80
2018-06-13T04:04:52.459Z,12.80
2018-06-13T04:07:55.638Z,12.80
2018-06-13T04:10:58.925Z,12.80
2018-06-13T04:14:02.306Z,12.80
2018-06-13T04:17:05.653Z,12.80
2018-06-13T04:20:08.832Z,12.80
2018-06-13T04:23:12.120Z,12.80
2018-06-13T04:26:15.419Z,12.80
2018-06-13T04:29:18.626Z,12.80
2018-06-13T04:32:22.031Z,12.80
2018-06-13T04:35:25.234Z,12.80
2018-06-13T04:38:28.510Z,12.80
2018-06-13T04:41:31.818Z,12.80
2018-06-13T04:44:35.011Z,12.80
2018-06-13T04:47:38.226Z,12.80
2018-06-13T04:50:41.553Z,12.80
2018-06-13T04:53:44.746Z,12.80
2018-06-13T04:56:48.024Z,12.80
2018-06-13T04:59:51.286Z,12.90
2018-06-13T05:02:54.641Z,12.80
2018-06-13T05:05:57.954Z,12.80
2018-06-13T05:09:01.263Z,12.80
2018-06-13T05:12:04.594Z,12.70
2018-06-13T05:27:19.914Z,12.60
2018-06-13T05:30:23.313Z,12.60
2018-06-13T05:33:26.653Z,12.70
2018-06-13T05:39:32.743Z,12.80
2018-06-13T05:42:35.962Z,12.90
2018-06-13T05:45:39.233Z,12.90
2018-06-13T05:51:45.578Z,12.90
2018-06-13T05:54:53.627Z,12.90
2018-06-13T05:57:56.829Z,13.00
2018-06-13T06:04:03.023Z,13.00
2018-06-13T06:07:06.275Z,13.00
2018-06-13T06:10:09.571Z,13.00
2018-06-13T06:13:12.874Z,13.00
2018-06-13T06:16:16.154Z,13.00
2018-06-13T06:19:19.552Z,13.10
2018-06-13T06:22:22.826Z,13.20
2018-06-13T06:25:26.009Z,13.30
2018-06-13T06:28:29.222Z,13.40
2018-06-13T06:31:32.454Z,13.60
2018-06-13T06:34:35.740Z,13.60
2018-06-13T06:37:39.713Z,13.60
2018-06-13T06:40:43.082Z,13.50
2018-06-13T06:43:46.353Z,13.30
2018-06-13T06:46:49.630Z,13.10
2018-06-13T06:49:52.851Z,12.90
2018-06-13T06:52:56.098Z,13.00
2018-06-13T06:55:59.448Z,13.10
2018-06-13T07:02:05.691Z,13.20
2018-06-13T07:05:08.858Z,13.40
2018-06-13T07:08:22.506Z,13.40
2018-06-13T07:11:25.722Z,13.30
2018-06-13T07:14:28.951Z,13.30
2018-06-13T07:20:35.284Z,13.30
2018-06-13T07:23:38.599Z,13.20
2018-06-13T07:26:41.987Z,13.20
2018-06-13T07:29:45.232Z,13.20
2018-06-13T07:35:51.558Z,13.40
2018-06-13T07:38:54.814Z,13.60
2018-06-13T07:45:01.084Z,13.70
2018-06-13T07:51:07.375Z,13.90
2018-06-13T07:54:10.658Z,13.90
2018-06-13T07:57:13.825Z,13.90
2018-06-13T08:00:17.026Z,13.90
2018-06-13T08:03:20.266Z,14.00
2018-06-13T08:06:23.485Z,14.20
2018-06-13T08:09:26.737Z,14.40
2018-06-13T08:15:33.031Z,14.60
2018-06-13T08:18:36.268Z,14.70
2018-06-13T08:21:39.484Z,14.60
2018-06-13T08:24:53.338Z,14.60
2018-06-13T08:27:56.553Z,14.50
2018-06-13T08:30:59.693Z,14.20
2018-06-13T08:34:02.802Z,13.90
2018-06-13T08:37:05.877Z,13.80
2018-06-13T08:40:08.963Z,13.70
2018-06-13T08:43:12.057Z,13.60
2018-06-13T08:46:15.154Z,13.60
2018-06-13T08:49:18.221Z,13.60
2018-06-13T08:52:21.350Z,13.70
2018-06-13T08:55:24.449Z,13.70
2018-06-13T08:58:27.517Z,13.80
2018-06-13T09:01:30.594Z,13.80
2018-06-13T09:04:33.661Z,14.00
2018-06-13T09:10:39.590Z,14.80
2018-06-13T09:13:42.665Z,15.20
2018-06-13T09:16:45.737Z,15.50
2018-06-13T09:19:48.837Z,15.50
2018-06-13T09:22:52.172Z,15.40
2018-06-13T09:25:55.300Z,15.40
2018-06-13T09:32:01.226Z,15.30
2018-06-13T09:35:04.321Z,15.40
2018-06-13T09:38:07.385Z,15.50
2018-06-13T09:41:10.493Z,15.80
2018-06-13T09:44:13.597Z,15.90
2018-06-13T09:47:23.456Z,16.30
2018-06-13T09:50:19.771Z,16.70
2018-06-13T09:53:22.813Z,17.00
2018-06-13T09:59:34.285Z,17.20
2018-06-13T10:02:37.891Z,16.90
2018-06-13T10:05:40.969Z,16.60
2018-06-13T10:08:44.131Z,16.30
2018-06-13T10:14:50.084Z,15.50
2018-06-13T10:17:53.121Z,15.20
2018-06-13T10:20:56.245Z,15.00
2018-06-13T10:23:59.309Z,15.00
2018-06-13T10:27:06.642Z,15.10
2018-06-13T10:30:09.717Z,15.30
2018-06-13T10:33:12.802Z,15.50
2018-06-13T10:36:15.882Z,15.60
2018-06-13T10:39:18.953Z,15.70
2018-06-13T10:42:22.032Z,15.60
2018-06-13T10:45:25.117Z,15.40
2018-06-13T10:48:28.202Z,15.10
2018-06-13T10:54:37.369Z,14.60
2018-06-13T10:57:40.429Z,14.50
2018-06-13T11:00:43.526Z,14.40
2018-06-13T11:06:49.542Z,14.50
2018-06-13T11:09:52.630Z,14.60
2018-06-13T11:12:55.771Z,14.70
2018-06-13T11:15:58.951Z,14.80
2018-06-13T11:19:02.014Z,15.00
2018-06-13T11:22:05.095Z,15.40
2018-06-13T11:25:08.157Z,15.70
2018-06-13T11:31:14.090Z,16.40
2018-06-13T11:34:17.154Z,16.80
2018-06-13T11:37:20.254Z,17.20
2018-06-13T11:40:23.321Z,17.50
2018-06-13T11:43:26.405Z,17.40
2018-06-13T11:46:29.510Z,17.30
2018-06-13T11:49:32.573Z,17.10
2018-06-13T11:55:38.497Z,17.00
2018-06-13T11:58:41.585Z,17.00
2018-06-13T12:01:44.721Z,16.80
2018-06-13T12:04:49.952Z,16.70
2018-06-13T12:07:53.116Z,16.60
2018-06-13T12:10:56.204Z,16.30
2018-06-13T12:13:59.281Z,16.10
2018-06-13T12:17:02.401Z,15.90
2018-06-13T12:20:05.429Z,15.70
2018-06-13T12:26:11.374Z,15.80
2018-06-13T12:29:14.785Z,16.00
2018-06-13T12:32:17.857Z,16.20
2018-06-13T12:35:20.926Z,16.40
2018-06-13T12:38:41.135Z,16.60
2018-06-13T12:41:44.229Z,16.80
2018-06-13T12:44:47.321Z,17.10
2018-06-13T12:47:50.425Z,17.40
2018-06-13T12:50:53.536Z,17.40
2018-06-13T12:53:56.572Z,17.80
2018-06-13T12:56:59.653Z,17.80
2018-06-13T13:00:02.729Z,17.50
2018-06-13T13:03:05.889Z,17.60
2018-06-13T13:06:08.977Z,17.70
2018-06-13T13:09:13.514Z,17.50
2018-06-13T13:12:16.598Z,17.40
2018-06-13T13:15:19.649Z,17.20
2018-06-13T13:18:22.728Z,17.00
2018-06-13T13:21:25.790Z,16.90
2018-06-13T13:24:28.871Z,16.90
2018-06-13T13:27:38.573Z,16.80
2018-06-13T13:30:41.626Z,16.60
2018-06-13T13:36:47.629Z,16.50
2018-06-13T13:39:50.687Z,16.50
2018-06-13T13:42:53.745Z,16.40
2018-06-13T13:45:56.880Z,16.20
2018-06-13T13:48:59.898Z,16.10
2018-06-13T13:52:02.997Z,16.10
2018-06-13T13:55:06.177Z,16.20
2018-06-13T13:58:09.265Z,16.20
2018-06-13T14:01:12.341Z,16.20
2018-06-13T14:04:15.435Z,16.30
2018-06-13T14:10:21.372Z,16.30
2018-06-13T14:13:24.470Z,16.30
2018-06-13T14:16:27.590Z,16.30
2018-06-13T14:19:31.046Z,16.30
2018-06-13T14:22:34.171Z,16.50
2018-06-13T14:25:37.208Z,16.70
2018-06-13T14:28:40.287Z,16.80
2018-06-13T14:31:43.366Z,16.80
2018-06-13T14:34:46.433Z,17.00
2018-06-13T14:37:49.500Z,17.20
2018-06-13T14:40:52.569Z,17.30
2018-06-13T14:43:55.626Z,17.40
2018-06-13T14:46:58.685Z,17.20
2018-06-13T14:50:01.753Z,17.00
2018-06-13T14:53:04.802Z,16.70
2018-06-13T14:56:13.674Z,16.50
2018-06-13T14:59:16.755Z,16.10
2018-06-13T15:02:19.852Z,15.70
2018-06-13T15:05:23.303Z,15.30
2018-06-13T15:11:29.246Z,14.90
2018-06-13T15:14:32.349Z,14.80
2018-06-13T15:17:35.419Z,14.70
2018-06-13T15:20:42.436Z,14.70
2018-06-13T15:23:45.657Z,14.70
2018-06-13T15:26:48.821Z,14.80
2018-06-13T15:32:54.849Z,14.90
2018-06-13T15:35:57.924Z,15.00
2018-06-13T15:39:00.985Z,15.10
2018-06-13T15:45:06.987Z,15.20
2018-06-13T15:48:10.045Z,15.30
2018-06-13T15:51:13.107Z,15.40
2018-06-13T15:54:16.181Z,15.60
2018-06-13T15:57:19.248Z,15.70
2018-06-13T16:00:22.341Z,15.80
2018-06-13T16:03:25.407Z,15.80
2018-06-13T16:09:31.426Z,16.00
2018-06-13T16:12:49.387Z,16.00
2018-06-13T16:15:52.450Z,16.20
2018-06-13T16:18:55.488Z,16.30
2018-06-13T16:21:58.589Z,16.50
2018-06-13T16:25:01.654Z,16.40
2018-06-13T16:28:04.750Z,16.20
2018-06-13T16:31:07.825Z,16.20
2018-06-13T16:34:10.888Z,16.30
2018-06-13T16:37:13.997Z,16.30
2018-06-13T16:40:17.058Z,16.30
2018-06-13T16:43:20.169Z,16.30
2018-06-13T16:46:23.262Z,16.10
2018-06-13T16:49:26.328Z,15.90
2018-06-13T16:58:40.697Z,15.60
2018-06-13T17:01:43.761Z,15.40
2018-06-13T17:04:46.826Z,15.30
2018-06-13T17:07:49.936Z,15.20
2018-06-13T17:10:53.014Z,15.10
2018-06-13T17:13:56.083Z,15.10
2018-06-13T17:17:23.189Z,15.10
2018-06-13T17:20:26.282Z,15.10
2018-06-13T17:23:29.573Z,15.00
2018-06-13T17:26:32.642Z,15.00
2018-06-13T17:29:35.693Z,15.10
2018-06-13T17:35:41.663Z,15.10
2018-06-13T17:38:44.734Z,15.10
2018-06-13T17:41:47.830Z,15.00
2018-06-13T17:44:50.887Z,15.00
2018-06-13T17:47:54.332Z,15.00
2018-06-13T17:50:57.373Z,14.90
2018-06-13T17:54:00.467Z,15.00
2018-06-13T17:57:03.523Z,15.00
2018-06-13T18:00:06.605Z,15.00
2018-06-13T18:06:12.523Z,15.00
2018-06-13T18:09:15.725Z,15.00
2018-06-13T18:12:18.793Z,15.00
2018-06-13T18:15:21.850Z,14.90
2018-06-13T18:18:24.902Z,14.90
2018-06-13T18:21:28.021Z,15.00
2018-06-13T18:24:31.137Z,14.90
2018-06-13T18:30:37.073Z,14.80
2018-06-13T18:33:40.152Z,14.80
2018-06-13T18:36:43.362Z,14.80
2018-06-13T18:39:46.468Z,14.70
2018-06-13T18:42:49.537Z,14.70
2018-06-13T18:45:52.586Z,14.60
2018-06-13T18:48:55.649Z,14.60
2018-06-13T18:51:58.773Z,14.50
2018-06-13T18:55:01.892Z,14.50
2018-06-13T18:58:04.945Z,14.50
2018-06-13T19:07:13.798Z,14.50
2018-06-13T19:10:16.825Z,14.50
2018-06-13T19:13:19.918Z,14.40
2018-06-13T19:16:22.996Z,14.40
2018-06-13T19:19:26.105Z,14.40
2018-06-13T19:22:29.181Z,14.40
2018-06-13T19:25:32.245Z,14.40
2018-06-13T19:28:35.333Z,14.30
2018-06-13T19:31:38.404Z,14.30
2018-06-13T19:34:41.485Z,14.30
2018-06-13T19:37:44.677Z,14.30
2018-06-13T19:40:47.781Z,14.20
2018-06-13T19:43:50.861Z,14.20
2018-06-13T19:46:56.521Z,14.10
2018-06-13T19:49:59.614Z,14.10
2018-06-13T19:53:08.145Z,14.20
2018-06-13T19:56:12.153Z,14.10
2018-06-13T19:59:15.230Z,14.10
2018-06-13T20:02:18.310Z,14.10
2018-06-13T20:05:26.796Z,14.00
2018-06-13T20:08:29.877Z,14.00
2018-06-13T20:11:32.949Z,14.00
2018-06-13T20:17:50.379Z,14.00
2018-06-13T20:20:53.449Z,14.00
2018-06-13T20:23:56.530Z,13.90
2018-06-13T20:27:05.090Z,13.90
2018-06-13T20:30:13.639Z,13.90
2018-06-13T20:33:23.037Z,13.90
2018-06-13T20:36:26.100Z,13.80
2018-06-13T20:39:29.190Z,13.80
2018-06-13T20:42:32.310Z,13.90
2018-06-13T20:45:35.377Z,13.90
2018-06-13T20:48:38.429Z,13.90
2018-06-13T20:51:41.515Z,13.90
2018-06-13T20:54:44.617Z,13.90
2018-06-13T20:57:47.701Z,13.80
2018-06-13T21:03:53.697Z,13.80
2018-06-13T21:06:56.780Z,13.80
2018-06-13T21:09:59.870Z,13.80
2018-06-13T21:13:02.959Z,13.80
2018-06-13T21:19:08.904Z,13.80
2018-06-13T21:22:11.982Z,13.80
2018-06-13T21:25:15.070Z,13.80
2018-06-13T21:28:18.138Z,13.70
2018-06-13T21:31:21.226Z,13.60
2018-06-13T21:34:24.299Z,13.60
2018-06-13T21:37:27.362Z,13.60
2018-06-13T21:40:30.421Z,13.50
2018-06-13T21:43:33.476Z,13.40
2018-06-13T21:46:36.544Z,13.40
2018-06-13T21:52:42.489Z,13.20
2018-06-13T21:55:45.560Z,13.20
2018-06-13T21:58:48.666Z,13.20
2018-06-13T22:01:51.869Z,13.20
2018-06-13T22:04:54.929Z,13.20
2018-06-13T22:07:58.005Z,13.20
2018-06-13T22:11:01.081Z,13.20
2018-06-13T22:14:04.157Z,13.20
2018-06-13T22:20:10.108Z,13.10
2018-06-13T22:23:13.198Z,13.00
2018-06-13T22:26:16.252Z,12.90
2018-06-13T22:29:19.317Z,12.80
2018-06-13T22:35:25.289Z,12.70
2018-06-13T22:38:28.361Z,12.60
2018-06-13T22:41:31.458Z,12.50
2018-06-13T22:44:34.549Z,12.40
2018-06-13T22:47:37.601Z,12.40
2018-06-13T22:50:40.682Z,12.30
2018-06-13T22:53:43.741Z,12.20
2018-06-13T22:59:49.707Z,12.20
2018-06-13T23:02:52.778Z,12.00
2018-06-13T23:05:55.861Z,12.00
2018-06-13T23:08:58.926Z,11.90
2018-06-13T23:12:02.022Z,11.80
2018-06-13T23:15:05.294Z,11.80
2018-06-13T23:18:08.374Z,11.80
2018-06-13T23:27:17.163Z,11.60
2018-06-13T23:30:20.237Z,11.60
2018-06-13T23:33:23.330Z,11.60
2018-06-13T23:36:26.426Z,11.50
2018-06-13T23:39:29.515Z,11.50
2018-06-13T23:42:32.572Z,11.50
2018-06-13T23:45:35.637Z,11.40
2018-06-13T23:48:38.705Z,11.40
2018-06-13T23:51:41.790Z,11.40
2018-06-13T23:54:44.881Z,11.40
2018-06-13T23:57:47.980Z,11.30
